map of HTMG home
HTMG - Airport
Location
City:  Morogoro, Morogoro, Tanzania
Name:Morogoro Airstrip
ICAO:HTMG

Details
Type:Airport (Aerodrome, Airfield)
Latitude:647'50"S (-6.797221)
Longitude:3739'11"E (37.653056)
Variation:1.66W (WMM2015 magnetic declination)
0.01 annual change
Runways:1

Time
Time Zone:UTC+3
Local Time:

Weather
METAR:HTMG 112000Z 00000KT 9999 FEW024 22/21 Q1016

Related Locations
Nearby:
Farthest:CXI: 11363 mi / 18286 km
Christmas Island (Kiritimati) [Cassidy Intl], L, KI

Find:

   beyond  
but within

Other Information
Maps:
NOTAMs:
Links:
Sources:

  
  • flag of Tanzania
  

Sectional Chart

Flight Planning
at skyvector.com

Satellite Image

Google Maps Satellite view

 

Copyright © 2004-2018 Karl L. Swartz. All rights reserved.
The Great Circle Mapper name and logo are trademarks of the Great Circle Mapper.
All other trademarks mentioned herein belong to their respective owners.
Please see credits for attibutions and further copyright information.

  Follow gcmap on Facebook Follow gcmap on Twitter Follow gcmap on Google+ GCmap on LinkedIn

hCard Microformat

Geo Microformat